Time;durP1;ratioP1;P1;durP2;ratioP2;P2;SDS_P1;SDS_P2;PMS_P1;PMS_P2;Temp;Humidity;BMP_temperature;BMP_pressure;BME280_temperature;BME280_humidity;BME280_pressure;Samples;Min_cycle;Max_cycle;Signal;HPM_P1;HPM_P2
2023/06/07 00:01:55;;;;;;;14.47;11.50;;;20.30;99.90;;;;;;5735405;23;20436;-86
2023/06/07 00:04:31;;;;;;;16.93;11.67;;;20.30;99.90;;;;;;5293622;23;20523;-89
2023/06/07 00:07:02;;;;;;;12.63;11.40;;;20.30;99.90;;;;;;4931382;29;20459;-89
2023/06/07 00:09:34;;;;;;;15.57;9.83;;;20.20;99.90;;;;;;4916097;29;20491;-89
2023/06/07 00:14:43;;;;;;;11.30;10.33;;;20.10;99.90;;;;;;5194984;23;20523;-89
2023/06/07 00:22:29;;;;;;;15.07;11.40;;;20.10;99.90;;;;;;5744635;23;20458;-90
2023/06/07 00:24:59;;;;;;;12.50;11.30;;;20.10;99.90;;;;;;4953562;29;20426;-88
2023/06/07 00:27:31;;;;;;;15.70;13.00;;;20.20;99.90;;;;;;4953421;29;20454;-89
2023/06/07 00:30:07;;;;;;;14.80;11.13;;;20.30;99.90;;;;;;4954117;29;20450;-91
2023/06/07 00:32:57;;;;;;;12.43;11.10;;;20.30;99.90;;;;;;4949931;29;20476;-89
2023/06/07 00:35:25;;;;;;;11.77;10.57;;;20.10;99.90;;;;;;4944485;29;20564;-89
2023/06/07 00:38:02;;;;;;;;;;;;;;;;;;;;;
2023/06/07 00:40:33;;;;;;;15.85;12.60;;;20.20;99.90;;;;;;5163850;23;20704;-90
2023/06/07 00:43:02;;;;;;;12.07;11.00;;;20.20;99.90;;;;;;4940516;29;20851;-90
2023/06/07 00:50:57;;;;;;;11.63;10.50;;;20.20;99.90;;;;;;5790705;23;20483;-90
2023/06/07 01:12:19;;;;;;;13.70;11.67;;;20.10;99.90;;;;;;5935698;23;20945;-86
2023/06/07 01:23:12;;;;;;;14.97;12.70;;;20.00;99.90;;;;;;5953900;23;20665;-88
2023/06/07 01:25:42;;;;;;;13.57;12.27;;;20.00;99.90;;;;;;4910016;29;20489;-86
2023/06/07 01:28:14;;;;;;;12.10;10.93;;;19.90;99.90;;;;;;4920339;29;20427;-85
2023/06/07 01:30:46;;;;;;;13.30;12.10;;;19.70;99.90;;;;;;4933927;29;20430;-86
2023/06/07 01:38:38;;;;;;;13.60;11.00;;;19.90;99.90;;;;;;5945632;23;20720;-88
2023/06/07 01:54:37;;;;;;;8.00;7.20;;;19.90;99.90;;;;;;4935763;29;20489;-87
2023/06/07 01:57:25;;;;;;;10.77;8.73;;;19.70;99.90;;;;;;4936034;29;20449;-87
2023/06/07 02:00:00;;;;;;;7.97;7.23;;;19.70;99.90;;;;;;4929162;29;20411;-86
2023/06/07 02:05:11;;;;;;;7.17;6.47;;;19.20;99.90;;;;;;5375769;23;20672;-85
2023/06/07 02:07:47;;;;;;;7.37;6.67;;;19.10;99.90;;;;;;5517268;23;20598;-82
2023/06/07 02:10:20;;;;;;;8.80;7.30;;;19.10;99.90;;;;;;5060954;23;20687;-86
2023/06/07 02:15:27;;;;;;;10.37;7.40;;;19.20;99.90;;;;;;5132054;23;20464;-90
2023/06/07 02:18:03;;;;;;;7.03;6.43;;;19.40;99.90;;;;;;4940734;29;20455;-89
2023/06/07 02:20:34;;;;;;;6.37;5.77;;;19.60;99.90;;;;;;4942126;29;20460;-91
2023/06/07 02:33:43;;;;;;;7.03;6.43;;;19.50;99.90;;;;;;5675279;23;20469;-88
2023/06/07 02:41:29;;;;;;;9.27;8.43;;;19.40;99.90;;;;;;5547395;23;20473;-86
2023/06/07 02:46:32;;;;;;;8.77;6.70;;;19.50;99.90;;;;;;5455331;23;20685;-89
2023/06/07 02:48:59;;;;;;;8.33;7.20;;;19.60;99.90;;;;;;4948359;28;20437;-88
2023/06/07 02:51:28;;;;;;;9.93;6.60;;;19.50;99.90;;;;;;4945681;29;20453;-90
2023/06/07 02:59:20;;;;;;;7.90;6.90;;;19.80;99.90;;;;;;5573526;23;20482;-86
2023/06/07 03:01:47;;;;;;;6.93;6.33;;;19.80;99.90;;;;;;5452685;23;20499;-89
2023/06/07 03:06:51;;;;;;;7.77;7.07;;;19.70;99.90;;;;;;5618709;23;20473;-88
2023/06/07 03:14:43;;;;;;;6.80;6.20;;;19.40;99.90;;;;;;5016855;23;20502;-89
2023/06/07 03:27:53;;;;;;;8.50;7.77;;;19.30;99.90;;;;;;5772761;23;20555;-91
2023/06/07 03:32:56;;;;;;;8.30;7.20;;;19.70;99.90;;;;;;5558204;23;20787;-88
2023/06/07 03:35:30;;;;;;;8.23;7.07;;;19.70;99.90;;;;;;5670357;23;20533;-87
2023/06/07 03:48:45;;;;;;;10.50;7.87;;;19.70;99.90;;;;;;5331542;23;20458;-85
2023/06/07 03:51:12;;;;;;;14.73;7.83;;;19.50;99.90;;;;;;5010209;23;20465;-88
2023/06/07 03:53:40;;;;;;;8.57;7.60;;;19.10;99.90;;;;;;5498151;23;20565;-89
2023/06/07 03:56:07;;;;;;;9.93;8.20;;;19.10;99.90;;;;;;4920457;29;20464;-86
2023/06/07 04:01:03;;;;;;;8.67;7.87;;;19.10;99.90;;;;;;5084444;23;20468;-87
2023/06/07 04:03:31;;;;;;;8.10;7.30;;;19.00;99.90;;;;;;5123724;23;20462;-87
2023/06/07 04:05:59;;;;;;;11.27;8.67;;;19.10;99.90;;;;;;5038345;23;20466;-88
2023/06/07 04:11:00;;;;;;;8.23;7.33;;;18.80;99.90;;;;;;4934658;29;20468;-81
2023/06/07 04:15:57;;;;;;;9.30;8.60;;;18.60;99.90;;;;;;5203649;23;20486;-86
2023/06/07 04:21:12;;;;;;;7.60;7.00;;;18.80;99.90;;;;;;5083019;23;20472;-85
2023/06/07 04:23:41;;;;;;;8.50;7.70;;;18.70;99.90;;;;;;5066990;23;20528;-84
2023/06/07 04:26:08;;;;;;;7.70;6.97;;;18.70;99.90;;;;;;4942599;29;20637;-87
2023/06/07 04:28:35;;;;;;;9.03;7.33;;;18.70;99.90;;;;;;4943827;29;20458;-87
2023/06/07 04:31:03;;;;;;;8.50;7.70;;;18.60;99.90;;;;;;5227634;23;21028;-85
2023/06/07 04:33:32;;;;;;;10.13;9.17;;;18.50;99.90;;;;;;5093837;23;20493;-88
2023/06/07 04:36:02;;;;;;;10.87;8.40;;;18.50;99.90;;;;;;4946235;29;20419;-89
2023/06/07 04:38:29;;;;;;;9.93;9.03;;;18.60;99.90;;;;;;5381544;23;20456;-88
2023/06/07 04:41:00;;;;;;;16.40;9.10;;;18.80;99.90;;;;;;5429336;23;20465;-88
2023/06/07 04:46:12;;;;;;;13.17;8.70;;;18.70;99.90;;;;;;5085753;23;20506;-83
2023/06/07 04:48:43;;;;;;;11.17;9.97;;;19.10;99.90;;;;;;5635308;23;20468;-85
2023/06/07 04:53:44;;;;;;;9.73;7.20;;;19.10;99.90;;;;;;5480141;23;20457;-87
2023/06/07 04:56:17;;;;;;;8.27;7.03;;;18.80;99.90;;;;;;4932531;29;20462;-85
2023/06/07 04:58:45;;;;;;;18.00;9.90;;;19.10;99.90;;;;;;4925735;29;20405;-88
2023/06/07 05:01:11;;;;;;;9.43;8.43;;;19.20;99.90;;;;;;4925518;29;20458;-86
2023/06/07 05:03:57;;;;;;;10.50;9.33;;;19.60;99.90;;;;;;4923356;29;20409;-85
2023/06/07 05:06:28;;;;;;;21.90;8.53;;;19.80;99.90;;;;;;4919581;29;20826;-83
2023/06/07 05:08:55;;;;;;;7.93;7.10;;;20.00;99.90;;;;;;4937725;29;20477;-88
2023/06/07 05:11:25;;;;;;;10.30;8.70;;;19.90;99.90;;;;;;4920845;29;20462;-88
2023/06/07 05:13:52;;;;;;;8.20;7.47;;;19.70;99.90;;;;;;4940921;29;20442;-84
2023/06/07 05:16:19;;;;;;;10.33;9.40;;;19.70;99.90;;;;;;4924733;29;20443;-86
2023/06/07 05:18:50;;;;;;;10.50;8.50;;;19.80;99.90;;;;;;4935233;29;20766;-86
2023/06/07 05:21:20;;;;;;;9.30;7.77;;;19.70;99.90;;;;;;4923274;29;20460;-88
2023/06/07 05:23:47;;;;;;;11.27;8.87;;;19.80;99.90;;;;;;5103506;23;20497;-85
2023/06/07 05:26:16;;;;;;;9.53;8.10;;;19.70;99.90;;;;;;4941626;29;20450;-86
2023/06/07 05:28:43;;;;;;;10.03;8.97;;;19.80;99.90;;;;;;4943987;29;20416;-86
2023/06/07 05:31:11;;;;;;;9.57;8.70;;;19.90;99.90;;;;;;4942661;29;20519;-85
2023/06/07 05:33:40;;;;;;;12.50;9.43;;;19.80;99.90;;;;;;4941091;29;20432;-84
2023/06/07 05:36:07;;;;;;;9.20;8.30;;;19.50;99.90;;;;;;4948685;29;20445;-82
2023/06/07 05:38:35;;;;;;;10.17;8.30;;;19.40;99.90;;;;;;4945139;29;20454;-85
2023/06/07 05:41:02;;;;;;;10.70;7.70;;;19.30;99.90;;;;;;4983197;23;20732;-86
2023/06/07 05:43:29;;;;;;;11.40;9.17;;;19.40;99.90;;;;;;4943928;28;20433;-86
2023/06/07 05:45:56;;;;;;;10.53;9.43;;;19.30;99.90;;;;;;4945725;28;20453;-86
2023/06/07 05:48:22;;;;;;;10.67;9.30;;;19.30;99.90;;;;;;4931942;29;20466;-88
2023/06/07 05:50:53;;;;;;;12.30;8.73;;;19.40;99.90;;;;;;5165295;23;20547;-87
2023/06/07 05:53:20;;;;;;;13.23;8.80;;;19.40;99.90;;;;;;4929900;29;20436;-83
2023/06/07 05:55:53;;;;;;;14.33;8.30;;;19.40;99.90;;;;;;4923762;29;20436;-85
2023/06/07 05:58:21;;;;;;;9.67;8.77;;;19.20;99.90;;;;;;4931815;29;20476;-88
2023/06/07 06:00:49;;;;;;;10.00;9.00;;;19.30;99.90;;;;;;5069675;23;20476;-85
2023/06/07 06:03:20;;;;;;;10.33;9.33;;;19.40;99.90;;;;;;4936478;29;20417;-85
2023/06/07 06:05:47;;;;;;;11.60;8.73;;;19.60;99.90;;;;;;4933758;29;20426;-85
2023/06/07 06:08:15;;;;;;;8.90;7.90;;;19.60;99.90;;;;;;4934408;29;20627;-87
2023/06/07 06:10:50;;;;;;;11.47;8.70;;;19.80;99.90;;;;;;4938544;29;20697;-86
2023/06/07 06:13:18;;;;;;;10.57;8.27;;;19.80;99.90;;;;;;4944271;29;20722;-84
2023/06/07 06:15:46;;;;;;;10.30;9.23;;;19.80;99.90;;;;;;4950130;28;20445;-85
2023/06/07 06:18:23;;;;;;;10.30;9.27;;;19.80;99.90;;;;;;4928104;29;20420;-87
2023/06/07 06:20:50;;;;;;;11.10;10.00;;;19.90;99.90;;;;;;4935407;29;20523;-84
2023/06/07 06:23:17;;;;;;;15.40;9.57;;;20.00;99.90;;;;;;4931429;29;20490;-85
2023/06/07 06:25:46;;;;;;;11.60;10.50;;;20.00;99.90;;;;;;4932944;29;20457;-88
2023/06/07 06:28:14;;;;;;;9.67;8.37;;;20.10;99.90;;;;;;4934896;29;20515;-85
2023/06/07 06:30:46;;;;;;;9.20;8.17;;;20.20;99.90;;;;;;4951428;28;20473;-84
2023/06/07 06:33:16;;;;;;;10.30;8.30;;;19.90;99.90;;;;;;4946673;29;20438;-84
2023/06/07 06:35:43;;;;;;;9.77;8.87;;;19.80;99.90;;;;;;4942205;28;20449;-83
2023/06/07 06:38:11;;;;;;;9.70;8.70;;;19.90;99.90;;;;;;4939562;29;20409;-84
2023/06/07 06:40:42;;;;;;;10.70;8.27;;;20.00;99.90;;;;;;4938975;29;20435;-86
2023/06/07 06:43:09;;;;;;;15.30;8.23;;;20.40;99.90;;;;;;4938420;29;20635;-85
2023/06/07 06:45:37;;;;;;;10.37;9.37;;;20.70;99.90;;;;;;4933557;29;20446;-86
2023/06/07 06:48:04;;;;;;;10.97;9.73;;;21.00;99.90;;;;;;4947506;29;20506;-84
2023/06/07 06:50:32;;;;;;;9.83;8.93;;;21.00;99.90;;;;;;4928864;29;20699;-84
2023/06/07 06:53:02;;;;;;;9.90;9.00;;;20.80;99.90;;;;;;4938742;29;20421;-84
2023/06/07 06:55:30;;;;;;;11.50;10.47;;;20.90;99.90;;;;;;4932163;29;20483;-87
2023/06/07 06:57:58;;;;;;;13.10;11.13;;;21.00;99.90;;;;;;4929568;29;20438;-85
2023/06/07 07:01:08;;;;;;;15.60;11.30;;;21.00;99.90;;;;;;4930055;29;20880;-88
2023/06/07 07:03:38;;;;;;;14.80;11.33;;;21.10;99.90;;;;;;4939919;29;20637;-86
2023/06/07 07:06:08;;;;;;;11.90;10.73;;;21.10;99.90;;;;;;4941724;29;20487;-88
2023/06/07 07:08:58;;;;;;;12.27;10.67;;;21.10;99.90;;;;;;4927574;29;20421;-87
2023/06/07 07:11:30;;;;;;;20.80;14.37;;;21.00;99.90;;;;;;4942131;29;20457;-85
2023/06/07 07:14:00;;;;;;;13.57;12.37;;;21.10;99.90;;;;;;4954907;29;20417;-87
2023/06/07 07:16:27;;;;;;;13.87;11.80;;;21.30;99.90;;;;;;4933943;29;20430;-89
2023/06/07 07:19:04;;;;;;;15.13;11.80;;;21.20;99.90;;;;;;4938639;29;20666;-88
2023/06/07 07:21:32;;;;;;;13.00;11.20;;;21.20;99.90;;;;;;4936563;29;20451;-89
2023/06/07 07:24:01;;;;;;;19.30;10.97;;;21.10;99.90;;;;;;4946952;29;20438;-89
2023/06/07 07:26:30;;;;;;;17.10;13.00;;;21.30;99.90;;;;;;4942927;29;20416;-87
2023/06/07 07:29:05;;;;;;;13.43;12.23;;;21.30;99.90;;;;;;4940199;29;20454;-88
2023/06/07 07:31:34;;;;;;;15.90;12.00;;;21.60;99.90;;;;;;4943381;29;20437;-85
2023/06/07 07:34:03;;;;;;;16.53;13.70;;;21.80;99.90;;;;;;4938996;29;20653;-88
2023/06/07 07:36:33;;;;;;;14.40;11.07;;;22.00;99.90;;;;;;4941646;29;20475;-87
2023/06/07 07:39:06;;;;;;;14.97;11.70;;;22.20;99.90;;;;;;4940908;29;20425;-87
2023/06/07 07:41:34;;;;;;;15.37;11.57;;;22.20;99.90;;;;;;4935245;29;20737;-87
2023/06/07 07:44:04;;;;;;;13.07;11.97;;;22.40;99.90;;;;;;4945321;29;20445;-85
2023/06/07 07:46:31;;;;;;;12.47;10.80;;;22.50;99.90;;;;;;4931443;29;21077;-86
2023/06/07 07:49:03;;;;;;;13.50;12.00;;;22.50;99.90;;;;;;4942951;29;20796;-85
2023/06/07 07:51:30;;;;;;;14.70;13.17;;;22.50;99.90;;;;;;4937243;29;20483;-85
2023/06/07 07:56:31;;;;;;;12.60;10.90;;;22.50;99.90;;;;;;4923608;29;20662;-84
2023/06/07 07:58:58;;;;;;;14.67;13.20;;;22.30;99.90;;;;;;4936406;29;20486;-84
2023/06/07 08:01:27;;;;;;;15.37;13.77;;;22.10;99.90;;;;;;4921192;29;20509;-86
2023/06/07 08:03:59;;;;;;;17.17;11.73;;;22.10;99.90;;;;;;4915432;29;20410;-87
2023/06/07 08:06:29;;;;;;;14.13;12.30;;;22.00;99.90;;;;;;4917989;29;20446;-84
2023/06/07 08:08:58;;;;;;;17.40;12.50;;;22.20;99.90;;;;;;4916504;29;20689;-86
2023/06/07 08:11:48;;;;;;;18.67;12.00;;;22.40;99.90;;;;;;4904874;29;20406;-84
2023/06/07 08:14:16;;;;;;;12.97;11.40;;;22.60;99.90;;;;;;4909162;29;20532;-86
2023/06/07 08:16:44;;;;;;;13.40;11.07;;;22.80;99.90;;;;;;4924325;29;20780;-84
2023/06/07 08:19:14;;;;;;;14.20;10.30;;;23.00;99.90;;;;;;4923785;29;20414;-83
2023/06/07 08:21:43;;;;;;;11.97;10.80;;;23.00;99.90;;;;;;4925585;29;20474;-84
2023/06/07 08:24:11;;;;;;;14.83;10.33;;;22.60;99.90;;;;;;4909996;29;20422;-86
2023/06/07 08:26:38;;;;;;;10.27;9.27;;;22.60;99.90;;;;;;4918822;29;20513;-85
2023/06/07 08:29:05;;;;;;;11.23;8.80;;;22.50;99.90;;;;;;4917112;29;20423;-85
2023/06/07 08:31:32;;;;;;;9.27;8.17;;;22.40;99.90;;;;;;4914502;29;20439;-84
2023/06/07 08:34:03;;;;;;;14.93;9.30;;;22.50;99.90;;;;;;4923999;29;20491;-83
2023/06/07 08:36:30;;;;;;;13.10;9.70;;;22.70;99.90;;;;;;4923935;29;20422;-86
2023/06/07 08:39:03;;;;;;;13.83;9.77;;;22.90;99.90;;;;;;4924651;29;20422;-84
2023/06/07 08:41:30;;;;;;;12.73;9.80;;;23.20;99.90;;;;;;4927155;29;20472;-85
2023/06/07 08:44:00;;;;;;;12.17;9.57;;;23.10;99.90;;;;;;4909382;29;20434;-85
2023/06/07 08:46:30;;;;;;;10.93;9.60;;;23.30;99.90;;;;;;4900231;29;20771;-85
2023/06/07 08:49:01;;;;;;;10.43;9.33;;;23.50;99.90;;;;;;4924994;29;20542;-82
2023/06/07 08:51:30;;;;;;;10.50;9.47;;;23.70;99.90;;;;;;4925336;29;20428;-83
2023/06/07 08:54:04;;;;;;;13.70;10.50;;;24.00;99.90;;;;;;4938878;28;20424;-81
2023/06/07 08:56:32;;;;;;;17.03;8.90;;;24.10;99.90;;;;;;4914238;29;20430;-85
2023/06/07 08:59:02;;;;;;;16.80;13.10;;;24.10;99.90;;;;;;4923673;29;20421;-82
2023/06/07 09:01:29;;;;;;;12.47;10.53;;;23.90;99.90;;;;;;4907407;29;20482;-81
2023/06/07 09:03:58;;;;;;;14.37;10.40;;;24.10;99.90;;;;;;4926351;29;20444;-82
2023/06/07 09:06:26;;;;;;;12.57;10.23;;;24.40;99.90;;;;;;4922422;29;20434;-85
2023/06/07 09:08:53;;;;;;;13.93;11.63;;;24.70;99.90;;;;;;4927890;29;20443;-83
2023/06/07 09:11:23;;;;;;;12.10;10.30;;;25.30;99.90;;;;;;4921295;29;20418;-83
2023/06/07 09:13:54;;;;;;;16.03;10.93;;;26.00;99.90;;;;;;4912487;29;20439;-83
2023/06/07 09:16:24;;;;;;;11.50;10.30;;;26.30;99.90;;;;;;4923438;29;20431;-82
2023/06/07 09:18:56;;;;;;;11.33;10.23;;;26.20;99.90;;;;;;4920757;29;20443;-83
2023/06/07 09:21:25;;;;;;;11.87;10.77;;;26.60;99.90;;;;;;4912417;29;20798;-82
2023/06/07 09:23:53;;;;;;;12.03;10.93;;;27.20;99.90;;;;;;4931777;29;20427;-79
2023/06/07 09:26:25;;;;;;;12.13;10.63;;;27.90;99.90;;;;;;4928240;29;20431;-80
2023/06/07 09:28:52;;;;;;;18.33;11.13;;;28.30;99.90;;;;;;4921323;29;20474;-81
2023/06/07 09:31:40;;;;;;;12.23;9.50;;;28.10;99.90;;;;;;4926603;29;20435;-81
2023/06/07 09:34:21;;;;;;;14.53;9.77;;;27.60;99.90;;;;;;4910764;29;20469;-85
2023/06/07 09:36:58;;;;;;;12.13;9.23;;;27.30;99.90;;;;;;4900903;29;20435;-81
2023/06/07 09:39:30;;;;;;;9.83;8.93;;;27.10;99.90;;;;;;4921008;29;20455;-81
2023/06/07 09:41:57;;;;;;;9.70;8.70;;;27.10;99.90;;;;;;4912538;29;20801;-81
2023/06/07 09:44:31;;;;;;;12.03;8.30;;;27.00;99.90;;;;;;4919241;29;20502;-82
2023/06/07 09:47:01;;;;;;;8.07;7.47;;;27.10;99.90;;;;;;4912754;29;20447;-84
2023/06/07 09:49:35;;;;;;;11.77;8.93;;;26.90;99.90;;;;;;4922189;29;20683;-81
2023/06/07 09:52:04;;;;;;;13.13;9.17;;;26.30;99.90;;;;;;4920869;29;20437;-82
2023/06/07 09:54:45;;;;;;;9.47;8.57;;;26.20;99.90;;;;;;4919902;29;20414;-83
2023/06/07 09:57:24;;;;;;;10.20;8.57;;;26.20;99.90;;;;;;4911381;29;20414;-81
2023/06/07 10:00:00;;;;;;;10.07;6.97;;;26.60;99.90;;;;;;4916352;29;20604;-81
2023/06/07 10:02:31;;;;;;;13.23;7.43;;;26.90;99.90;;;;;;4918460;29;21094;-81
2023/06/07 10:05:00;;;;;;;9.27;8.00;;;27.10;99.90;;;;;;4921072;29;20879;-81
2023/06/07 10:07:36;;;;;;;14.83;7.37;;;27.20;99.90;;;;;;4920620;29;20585;-79
2023/06/07 10:10:06;;;;;;;10.30;7.70;;;27.50;99.90;;;;;;4920319;29;20471;-83
2023/06/07 10:12:40;;;;;;;7.47;6.87;;;27.70;99.90;;;;;;4919213;29;20496;-84
2023/06/07 10:15:14;;;;;;;9.50;7.60;;;27.50;99.90;;;;;;4913811;29;20470;-83
2023/06/07 10:17:51;;;;;;;9.67;6.07;;;27.40;99.90;;;;;;4919110;29;20447;-83
2023/06/07 10:20:33;;;;;;;9.27;7.67;;;27.50;99.90;;;;;;4920683;29;20462;-86
2023/06/07 10:23:05;;;;;;;8.20;7.30;;;27.60;99.90;;;;;;4922379;29;20613;-85
2023/06/07 10:25:52;;;;;;;8.60;7.17;;;27.80;99.90;;;;;;4911037;29;20810;-84
2023/06/07 10:28:29;;;;;;;8.30;6.40;;;28.00;99.90;;;;;;4923936;29;20417;-83
2023/06/07 10:31:05;;;;;;;7.90;7.10;;;28.20;99.90;;;;;;4922127;29;20450;-85
2023/06/07 10:33:33;;;;;;;7.50;6.70;;;28.30;99.90;;;;;;4909005;29;20507;-84
2023/06/07 10:36:00;;;;;;;8.47;6.90;;;28.20;99.90;;;;;;4921766;29;20437;-83
2023/06/07 10:38:30;;;;;;;8.57;7.77;;;28.00;99.90;;;;;;4912514;29;20439;-81
2023/06/07 10:40:59;;;;;;;9.90;8.57;;;28.10;99.90;;;;;;4920432;29;20430;-82
2023/06/07 10:43:28;;;;;;;9.00;7.60;;;28.00;99.90;;;;;;4907104;29;20482;-84
2023/06/07 10:46:19;;;;;;;9.50;7.83;;;28.30;99.90;;;;;;4922007;29;20470;-84
2023/06/07 10:48:47;;;;;;;7.23;6.63;;;29.10;99.90;;;;;;4917896;29;20446;-82
2023/06/07 10:51:15;;;;;;;10.00;8.13;;;29.80;99.90;;;;;;4920490;29;20466;-85
2023/06/07 10:53:55;;;;;;;10.30;7.40;;;30.10;99.90;;;;;;4883733;29;20669;-82
2023/06/07 10:56:30;;;;;;;9.17;7.60;;;30.30;99.90;;;;;;4919608;29;20593;-84
2023/06/07 10:59:15;;;;;;;9.90;6.87;;;30.30;99.90;;;;;;4920072;29;20527;-82
2023/06/07 11:01:52;;;;;;;7.33;6.60;;;30.20;99.90;;;;;;4907791;29;20550;-83
2023/06/07 11:04:35;;;;;;;8.27;7.57;;;30.20;99.90;;;;;;4912955;29;20444;-81
2023/06/07 11:07:30;;;;;;;7.70;6.90;;;29.60;99.90;;;;;;4914535;29;20432;-83
2023/06/07 11:10:07;;;;;;;8.43;7.40;;;29.50;99.90;;;;;;4913893;29;20459;-85
2023/06/07 11:12:35;;;;;;;8.83;8.00;;;29.60;99.90;;;;;;4913446;29;20490;-84
2023/06/07 11:15:20;;;;;;;7.13;6.43;;;29.80;99.90;;;;;;4921086;29;20443;-80
2023/06/07 11:17:55;;;;;;;8.33;7.17;;;29.90;99.90;;;;;;4914884;29;20443;-83
2023/06/07 11:20:37;;;;;;;6.93;6.30;;;29.90;99.90;;;;;;4913944;29;20439;-85
2023/06/07 11:23:28;;;;;;;7.43;5.53;;;30.00;99.90;;;;;;4920115;29;20844;-82
2023/06/07 11:25:59;;;;;;;7.93;6.97;;;30.10;99.90;;;;;;4919820;29;20427;-87
2023/06/07 11:28:33;;;;;;;11.30;7.13;;;30.10;99.90;;;;;;4920907;29;20421;-80
2023/06/07 11:31:08;;;;;;;7.97;7.17;;;30.10;99.90;;;;;;4926730;29;20402;-82
2023/06/07 11:33:36;;;;;;;9.63;6.60;;;30.40;99.90;;;;;;4928201;29;20411;-82
2023/06/07 11:36:04;;;;;;;9.37;7.20;;;30.60;99.90;;;;;;4928283;29;20427;-83
2023/06/07 11:38:32;;;;;;;7.83;7.03;;;31.10;99.90;;;;;;4914550;29;20528;-83
2023/06/07 11:40:59;;;;;;;10.90;7.00;;;31.20;99.90;;;;;;4929341;29;20438;-86
2023/06/07 11:43:34;;;;;;;7.90;6.60;;;31.40;99.90;;;;;;4923104;29;21091;-87
2023/06/07 11:46:02;;;;;;;7.47;6.87;;;31.40;99.70;;;;;;4918903;29;20435;-85
2023/06/07 11:48:31;;;;;;;8.03;6.73;;;31.10;99.90;;;;;;4905144;29;20471;-84
2023/06/07 11:51:00;;;;;;;7.40;6.80;;;30.50;99.90;;;;;;4925653;29;20680;-86
2023/06/07 11:53:30;;;;;;;8.17;7.37;;;30.20;99.90;;;;;;4911520;29;20435;-85
2023/06/07 11:56:01;;;;;;;7.93;6.90;;;29.70;99.90;;;;;;4924777;29;20447;-86
2023/06/07 11:58:30;;;;;;;7.40;6.60;;;29.40;99.90;;;;;;4924250;29;20450;-81
2023/06/07 12:00:58;;;;;;;7.30;6.20;;;29.20;99.90;;;;;;4915516;29;21054;-83
2023/06/07 12:03:26;;;;;;;8.90;8.00;;;29.00;99.90;;;;;;4895891;29;20468;-82
2023/06/07 12:05:56;;;;;;;10.87;6.57;;;28.80;99.90;;;;;;4924815;29;20410;-82
2023/06/07 12:08:29;;;;;;;13.23;7.53;;;28.00;99.90;;;;;;4908160;29;20436;-84
2023/06/07 12:11:03;;;;;;;8.97;7.83;;;27.20;99.90;;;;;;4928322;29;20428;-83
2023/06/07 12:13:37;;;;;;;39.53;13.67;;;26.10;99.90;;;;;;4926821;29;20440;-88
2023/06/07 12:16:18;;;;;;;21.17;12.20;;;24.60;99.90;;;;;;4908463;29;20406;-85
2023/06/07 12:18:48;;;;;;;21.77;11.90;;;23.10;99.90;;;;;;4894347;29;20807;-87
2023/06/07 12:21:59;;;;;;;21.23;13.80;;;22.40;99.90;;;;;;4920621;29;20443;-90
2023/06/07 12:24:41;;;;;;;21.97;12.97;;;22.00;99.90;;;;;;4931255;29;20427;-84
2023/06/07 12:27:38;;;;;;;16.17;12.30;;;20.90;99.90;;;;;;4872212;29;20456;-87
2023/06/07 12:30:41;;;;;;;28.33;15.63;;;19.80;99.90;;;;;;4831803;29;20488;-88
2023/06/07 12:33:15;;;;;;;21.37;15.20;;;19.60;99.90;;;;;;4834293;29;20765;-87
2023/06/07 12:35:50;;;;;;;21.15;18.95;;;19.40;99.90;;;;;;4852008;29;20809;-85
2023/06/07 12:38:21;;;;;;;24.07;18.90;;;19.50;99.90;;;;;;4865527;29;20210;-86
2023/06/07 12:40:49;;;;;;;21.57;19.30;;;19.50;99.90;;;;;;4849605;29;20853;-85
2023/06/07 12:43:17;;;;;;;21.53;19.33;;;19.30;99.90;;;;;;4864157;29;20452;-82
2023/06/07 12:45:44;;;;;;;24.10;21.57;;;19.50;99.90;;;;;;4848570;29;20416;-81
2023/06/07 12:48:12;;;;;;;22.83;21.00;;;19.40;99.90;;;;;;4854041;29;20900;-84
2023/06/07 12:50:39;;;;;;;24.13;21.73;;;19.60;99.90;;;;;;4841624;29;20825;-86
2023/06/07 12:53:07;;;;;;;22.30;20.70;;;20.00;99.90;;;;;;4863040;29;20573;-83
2023/06/07 12:55:33;;;;;;;22.47;20.47;;;20.30;99.90;;;;;;4868630;29;20461;-84
2023/06/07 12:58:01;;;;;;;22.47;20.67;;;20.40;99.90;;;;;;4869264;29;20755;-85
2023/06/07 13:00:28;;;;;;;24.03;21.77;;;20.80;99.90;;;;;;4879528;29;21029;-86
2023/06/07 13:02:55;;;;;;;26.80;24.50;;;20.80;99.90;;;;;;4913466;29;20454;-82
2023/06/07 13:05:22;;;;;;;24.30;22.20;;;20.90;99.90;;;;;;4919729;29;20446;-82
2023/06/07 13:07:49;;;;;;;23.13;21.53;;;21.10;99.90;;;;;;4928701;29;20402;-81
2023/06/07 13:10:17;;;;;;;24.70;22.50;;;21.10;99.90;;;;;;4927816;29;20934;-84
2023/06/07 13:12:45;;;;;;;22.63;20.67;;;21.20;99.90;;;;;;4897602;29;20509;-82
2023/06/07 13:15:12;;;;;;;20.57;19.17;;;21.40;99.90;;;;;;4921520;29;20886;-83
2023/06/07 13:17:39;;;;;;;19.67;18.17;;;21.60;99.90;;;;;;4922083;29;20421;-84
2023/06/07 13:20:07;;;;;;;20.93;19.43;;;22.00;99.90;;;;;;4910657;29;20461;-81
2023/06/07 13:22:35;;;;;;;19.63;18.17;;;22.50;99.90;;;;;;4920699;29;20457;-84
2023/06/07 13:25:02;;;;;;;20.00;18.50;;;23.00;99.90;;;;;;4915762;29;20422;-81
2023/06/07 13:27:29;;;;;;;23.37;20.60;;;23.30;99.90;;;;;;4920515;29;20442;-82
2023/06/07 13:29:56;;;;;;;20.17;17.90;;;23.60;99.90;;;;;;4920628;29;20609;-82
2023/06/07 13:32:23;;;;;;;17.87;16.57;;;24.40;99.90;;;;;;4922713;29;20411;-83
2023/06/07 13:34:51;;;;;;;19.00;17.57;;;24.30;99.90;;;;;;4921769;29;20510;-82
2023/06/07 13:37:18;;;;;;;17.80;16.13;;;24.50;99.90;;;;;;4921078;29;20810;-80
2023/06/07 13:39:44;;;;;;;18.13;15.67;;;24.60;99.90;;;;;;4925984;29;20431;-82
2023/06/07 13:42:11;;;;;;;17.60;16.30;;;24.80;99.90;;;;;;4923610;29;20451;-84
2023/06/07 13:44:56;;;;;;;18.27;16.07;;;24.90;99.90;;;;;;4924504;29;20475;-87
2023/06/07 13:47:26;;;;;;;16.07;14.83;;;24.90;99.90;;;;;;4913552;29;20434;-86
2023/06/07 13:49:57;;;;;;;16.03;14.40;;;24.70;99.90;;;;;;4915644;29;20406;-84
2023/06/07 13:52:24;;;;;;;14.50;13.27;;;24.70;99.90;;;;;;4908554;29;20466;-87
2023/06/07 13:54:54;;;;;;;15.50;14.17;;;24.50;99.90;;;;;;4919080;29;20429;-84
2023/06/07 13:57:21;;;;;;;14.80;13.80;;;24.50;99.90;;;;;;4920490;29;20424;-87
2023/06/07 13:59:49;;;;;;;12.87;11.60;;;24.40;99.90;;;;;;4926116;29;20443;-85
2023/06/07 14:02:17;;;;;;;13.20;12.30;;;24.20;99.90;;;;;;4910761;29;20442;-86
2023/06/07 14:04:46;;;;;;;18.40;12.40;;;24.10;99.90;;;;;;4916671;29;20485;-87
2023/06/07 14:07:14;;;;;;;14.47;13.17;;;23.90;99.90;;;;;;4925494;29;20420;-85
2023/06/07 14:09:41;;;;;;;11.70;10.70;;;24.20;99.90;;;;;;4922314;29;20444;-81
2023/06/07 14:12:10;;;;;;;12.73;11.53;;;24.20;99.90;;;;;;4911438;29;20673;-89
2023/06/07 14:14:38;;;;;;;12.80;11.77;;;24.30;99.90;;;;;;5001941;23;20477;-85
2023/06/07 14:17:17;;;;;;;12.13;11.03;;;24.40;99.90;;;;;;4925128;29;20450;-83
2023/06/07 14:19:45;;;;;;;13.00;11.80;;;24.40;99.90;;;;;;4925464;29;20947;-83
2023/06/07 14:22:12;;;;;;;13.47;10.60;;;24.50;99.90;;;;;;4930028;29;20417;-89
2023/06/07 14:24:44;;;;;;;13.20;11.70;;;24.80;99.90;;;;;;4930954;29;20472;-86
2023/06/07 14:27:11;;;;;;;12.53;11.23;;;25.20;99.90;;;;;;4931152;29;20460;-85
2023/06/07 14:29:41;;;;;;;12.73;11.60;;;25.00;99.90;;;;;;4928345;29;20622;-84
2023/06/07 14:32:11;;;;;;;13.60;12.30;;;25.10;99.90;;;;;;4933303;29;20413;-86
2023/06/07 14:34:39;;;;;;;11.67;10.67;;;25.00;99.90;;;;;;4926159;29;20845;-85
2023/06/07 14:39:38;;;;;;;11.50;10.70;;;25.30;99.90;;;;;;4928333;29;20471;-81
2023/06/07 14:42:06;;;;;;;11.70;10.47;;;25.60;99.90;;;;;;4919658;29;20483;-85
2023/06/07 14:44:34;;;;;;;12.90;11.90;;;25.60;99.90;;;;;;4917879;29;20474;-86
2023/06/07 14:47:00;;;;;;;12.30;11.30;;;25.60;99.90;;;;;;4917174;29;20479;-84
2023/06/07 14:49:31;;;;;;;12.50;10.80;;;25.90;99.90;;;;;;4927901;29;20416;-83
2023/06/07 14:52:05;;;;;;;12.23;11.10;;;25.80;99.90;;;;;;4916632;29;20451;-84
2023/06/07 14:54:35;;;;;;;12.47;10.20;;;25.70;99.90;;;;;;4919538;29;20428;-85
2023/06/07 14:57:03;;;;;;;12.43;11.30;;;25.50;99.90;;;;;;4928341;29;20485;-79
2023/06/07 14:59:30;;;;;;;14.67;11.43;;;25.50;99.90;;;;;;4916722;29;20442;-84
2023/06/07 15:02:12;;;;;;;10.50;9.60;;;25.60;99.90;;;;;;4915290;29;20474;-85
2023/06/07 15:04:39;;;;;;;10.33;9.50;;;25.60;99.90;;;;;;4931089;29;20878;-84
2023/06/07 15:07:07;;;;;;;12.40;10.90;;;25.50;99.90;;;;;;5046715;23;20448;-83
2023/06/07 15:09:34;;;;;;;11.13;10.10;;;25.80;99.90;;;;;;4940912;29;20437;-85
2023/06/07 15:12:03;;;;;;;10.47;9.60;;;25.90;99.90;;;;;;4931110;29;20477;-83
2023/06/07 15:14:36;;;;;;;12.07;9.20;;;26.00;99.90;;;;;;4938539;29;20436;-86
2023/06/07 15:17:05;;;;;;;11.10;10.10;;;26.00;99.90;;;;;;4938475;29;20607;-83